AirNav   Everest Fuels
 
 266 users online  

CD52 Mount Princeton Heliport
Mount Princeton, Colorado, USA

GOING TO MOUNT PRINCETON?


FAA INFORMATION EFFECTIVE 12 SEPTEMBER 2019

Location

FAA Identifier: CD52
Lat/Long: 38-44-42.9870N 106-11-59.0710W
38-44.716450N 106-11.984517W
38.7452742,-106.1997419
(estimated)
Elevation: 10858 ft. / 3310 m (estimated)
Variation: 12E (1985)
From city: 2 miles W of MOUNT PRINCETON, CO
Time zone: UTC -6 (UTC -7 during Standard Time)
Zip code: 81236

Heliport Operations

Heliport use: Private use. Permission required prior to landing
Activation date: 03/1988
Control tower: no
ARTCC: DENVER CENTER
FSS: DENVER FLIGHT SERVICE STATION
Attendance: UNATNDD
Segmented circle: no

Heliport Communications

WX AWOS-3 at AEJ (6 nm NE): 132.925 (719-395-2599)
WX AWOS-3 at ANK (14 nm SE): 133.85 (719-539-5268)

Heliport Services

Runway Information

Helipad H1

Dimensions: 100 x 100 ft. / 30 x 30 m
Surface: turf
Traffic pattern: leftleft

Heliport Ownership and Management from official FAA records

Ownership: Privately-owned
Owner: CENTURYLINK
9666 METRO AIRPORT AVE
BROOMFIELD, CO 80012
Phone (304) 643-4972
Manager: DARREN ALMSKOG
9666 METRO AIRPORT AVE
BROOMFIELD, CO 80012
Phone (303) 304-9960
DARREN ALMSKOG 303-304-9960 DARREN.ALMSKOG@CENTURYLINK.COM

Additional Remarks

FOR CD CTC DENVER ARTCC AT 303-651-4257.

Instrument Procedures

There are no published instrument procedures at CD52.

Some nearby airports with instrument procedures:

KAEJ - Central Colorado Regional Airport (6 nm NE)
KANK - Salida Airport Harriett Alexander Field (14 nm SE)
KLXV - Lake County Airport (29 nm N)
KGUC - Gunnison-Crested Butte Regional Airport (37 nm W)
KASE - Aspen-Pitkin County Airport/Sardy Field (42 nm NW)
 
Loc | Ops | Rwys | IFR | FBO | Links
Com | Nav | Svcs | Stats | Notes

AirBoss

 
Area around CD52 (Mount Princeton Heliport)
 
Road maps at: MapQuest Bing Google
 
Aerial photo
No photo
 
Sectional chart

 
Airport distance calculator
Flying to Mount Princeton Heliport? Find the distance to fly.

From to CD52

Sunrise and sunset
Times for 23-Sep-2019
 Local
(UTC-6)
 Zulu
(UTC)
Morning civil twilight06:2812:28
Sunrise06:5412:54
Sunset19:0001:00
Evening civil twilight19:2601:26

Current date and time
Zulu (UTC)  23-Sep-2019 07:58:24
Local (UTC-6)  23-Sep-2019 01:58:24
 
METAR
K7BM 
3nm N 
230730Z AUTO 31003KT 10SM CLR 10/M13 A3040 RMK AO2
KAEJ 
6nm NE 
230735Z AUTO 29004KT 10SM CLR 05/M07 A3031 RMK AO2 T00501074
KANK 
14nm SE 
230755Z AUTO 25004KT 10SM CLR 07/M03 A3037 RMK AO1 T00721035
KMYP 
17nm S 
230730Z AUTO 10SM CLR 03/M11 A3062 RMK AO2
TAF
KGUC 
36nm W 
230520Z 2306/2406 23003KT P6SM BKN250 FM232100 25007KT P6SM BKN250 FM240200 32004KT P6SM SCT200
KASE 
43nm NW 
230520Z 2306/2406 20007KT P6SM BKN250 FM231600 01003KT P6SM BKN250 FM231800 35007KT P6SM SCT250 FM232000 32011G19KT P6SM FEW250
NOTAMs
Click for the latest NOTAMs
NOTAMs are issued by the DoD/FAA and will open in a separate window not controlled by AirNav.

 

 
 

Would you like to see your business listed on this page?

 If your business provides an interesting product or service to pilots, flight crews, aircraft, or users of the Mount Princeton Heliport, you should consider listing it here.  To start the listing process, click on the button below
 
Add a business
 

Other Pages about Mount Princeton Heliport

Update a link
 
Copyright © AirNav, LLC. All rights reserved. Privacy Policy  Contact